Etusivu
METAR-TAF:

METAR-TAF

Lentoasemat :

Rochester International Airport

Rochester, Minnesota, Yhdysvallat

Leveyspiiri: 43-54-15N, Pituuspiiri: 092-29-30W, korkeus merenpinnasta: 401 m

Tämänhetkinen sää

Tämä raportti tehtiin 9 minuuttia sitten, kello 09.54 UTC
Tuuli 5 kn etelästä/lounaasta
Lämpötila 0°C
Kosteus 93%
Ilmanpaine 1017 hPa
Näkyvyys: 16.1 km
selkeää

METAR: KRST 170954Z 20005KT 10SM CLR 00/M01 A3002 RMK AO2 SLP178 T00001011

Aika: 05:03 (10:03 UTC)

Sääennuste

Tämä raportti tehtiin 4 tuntia ja 43 minuuttia sitten, kello 05.20 UTC
Ennuste voimassa 17. päivästä klo 06 UTC - 18. päivään klo 06 UTC
Tuuli 4 kn eri suunnista
Näkyvyys: 10 km
Hajanaisia pilviä 10000 ft:n korkeudessa
From 17. päivästä klo 1000 UTC
Tuuli 5 kn etelästä
Näkyvyys: 10 km
selkeää
From 17. päivästä klo 2000 UTC
Tuuli 9 kn etelästä/kaakosta
Näkyvyys: 10 km
selkeää

TAF: KRST 170520Z 1706/1806 VRB04KT P6SM SCT100 FM171000 19005KT P6SM SKC FM172000 15009KT P6SM SKC

Säähavainnot ja -ennusteet yli 4000 lentoasemalta (METAR- ja TAF-raportit).

Käytössä olevat sääasemat on merkitty karttaan keltaisilla ja punaisilla pisteillä.

Aseta hiiri pisteen päälle nähdäksesi sääaseman nimen.

Klikkaa sitten nähdäksesi säähavainnot ja -ennusteet.

Kartan vaihtaminen: klikkaa mustalla rastilla varustettuja vihreitä pisteitä, niin voit zoomata sisään; viivalla varustettua vihreää pistettä, niin voit zoomata ulos tai vihreitä nuolia, niin pääset viereisille kartoille.


METAR-TAF: